Time;durP1;ratioP1;P1;durP2;ratioP2;P2;SDS_P1;SDS_P2;PMS_P1;PMS_P2;Temp;Humidity;BMP_temperature;BMP_pressure;BME280_temperature;BME280_humidity;BME280_pressure;Samples;Min_cycle;Max_cycle;Signal;HPM_P1;HPM_P2
2022/03/25 00:00:10;;;;;;;;;15.00;15.00;;;;;9.02;48.06;101516.03;146604;587;46012;-71
2022/03/25 00:03:02;;;;;;;;;19.50;19.25;;;;;8.92;48.37;101516.19;146604;630;46021;-71
2022/03/25 00:05:55;;;;;;;;;41.75;33.00;;;;;8.87;47.45;101517.56;146600;566;46016;-71
2022/03/25 00:08:46;;;;;;;;;20.25;18.50;;;;;8.83;47.53;101513.84;146606;658;46009;-71
2022/03/25 00:11:40;;;;;;;;;55.75;43.25;;;;;8.82;48.07;101509.47;146605;583;46010;-70
2022/03/25 00:14:32;;;;;;;;;45.50;36.50;;;;;8.82;47.73;101511.19;146605;617;46020;-70
2022/03/25 00:17:24;;;;;;;;;35.25;33.00;;;;;8.83;47.91;101513.84;146602;579;46016;-72
2022/03/25 00:20:16;;;;;;;;;27.50;21.25;;;;;8.80;47.58;101505.88;146604;580;47008;-73
2022/03/25 00:23:09;;;;;;;;;35.75;30.25;;;;;8.76;47.89;101504.78;146605;569;46010;-72
2022/03/25 00:26:01;;;;;;;;;30.25;27.50;;;;;8.73;49.22;101504.56;146606;605;46008;-73
2022/03/25 00:28:53;;;;;;;;;11.75;10.75;;;;;8.65;48.00;101497.03;146602;616;46010;-73
2022/03/25 00:31:46;;;;;;;;;25.75;23.00;;;;;8.59;48.42;101494.00;146607;630;46008;-72
2022/03/25 00:34:38;;;;;;;;;20.00;15.25;;;;;8.55;48.59;101482.56;146601;563;46016;-72
2022/03/25 00:37:30;;;;;;;;;16.00;15.00;;;;;8.52;48.71;101487.50;146601;579;46917;-72
2022/03/25 00:40:23;;;;;;;;;17.75;17.00;;;;;8.46;48.93;101482.78;146604;563;46010;-71
2022/03/25 00:43:15;;;;;;;;;16.75;15.25;;;;;8.41;49.05;101483.25;146607;599;46008;-73
2022/03/25 00:46:08;;;;;;;;;55.00;43.50;;;;;8.32;49.94;101479.19;146603;571;47012;-71
2022/03/25 00:48:59;;;;;;;;;25.25;23.75;;;;;8.21;50.68;101476.63;146607;672;47008;-72
2022/03/25 00:51:53;;;;;;;;;18.50;14.50;;;;;8.07;50.06;101476.53;146603;594;46011;-72
2022/03/25 00:54:45;;;;;;;;;22.75;22.75;;;;;7.95;50.67;101475.62;146605;718;46020;-71
2022/03/25 00:57:38;;;;;;;;;15.50;14.00;;;;;7.84;51.98;101469.66;146604;624;46016;-72
2022/03/25 01:00:30;;;;;;;;;21.75;19.50;;;;;7.77;50.11;101467.41;146608;604;46021;-71
2022/03/25 01:03:22;;;;;;;;;73.00;55.75;;;;;7.77;50.94;101462.25;146602;635;46024;-71
2022/03/25 01:06:15;;;;;;;;;25.25;22.75;;;;;7.78;50.66;101473.47;146627;602;45026;-72
2022/03/25 01:09:08;;;;;;;;;32.75;30.75;;;;;7.76;50.98;101470.78;146627;631;46008;-71
2022/03/25 01:12:00;;;;;;;;;16.50;14.00;;;;;7.71;51.57;101469.53;146630;595;45020;-71
2022/03/25 01:14:53;;;;;;;;;21.00;20.50;;;;;7.66;52.12;101470.84;146625;608;45914;-71
2022/03/25 01:17:46;;;;;;;;;23.75;19.50;;;;;7.55;52.12;101457.16;146629;606;45008;-71
2022/03/25 01:20:38;;;;;;;;;15.00;14.25;;;;;7.48;51.93;101462.66;146627;620;45914;-71
2022/03/25 01:23:30;;;;;;;;;20.00;17.50;;;;;7.50;51.07;101468.81;146629;621;45008;-71
2022/03/25 01:26:23;;;;;;;;;20.50;17.50;;;;;7.52;51.25;101464.69;146630;593;44016;-72
2022/03/25 01:29:15;;;;;;;;;17.25;15.50;;;;;7.56;51.95;101453.78;146626;576;45020;-71
2022/03/25 01:32:08;;;;;;;;;18.25;16.25;;;;;7.53;52.33;101460.41;146629;574;45016;-71
2022/03/25 01:35:00;;;;;;;;;81.33;67.00;;;;;7.49;51.02;101464.44;146632;659;45008;-71
2022/03/25 01:37:55;;;;;;;;;32.75;30.00;;;;;7.50;50.28;101455.00;146630;670;46914;-71
2022/03/25 01:40:47;;;;;;;;;17.00;15.50;;;;;7.61;50.32;101454.16;146632;572;45008;-72
2022/03/25 01:43:39;;;;;;;;;16.00;12.75;;;;;7.78;48.68;101455.38;146627;604;45016;-70
2022/03/25 01:46:32;;;;;;;;;25.75;23.50;;;;;7.94;48.75;101460.00;146627;588;46008;-68
2022/03/25 01:49:24;;;;;;;;;42.50;35.50;;;;;7.10;47.98;101279.19;146628;603;45914;-68
2022/03/25 01:52:17;;;;;;;;;33.25;31.75;;;;;8.23;47.97;101455.28;146630;592;45009;-68
2022/03/25 01:55:26;;;;;;;;;32.25;28.25;;;;;8.32;47.21;101461.09;146629;569;45010;-72
2022/03/25 01:58:19;;;;;;;;;31.50;29.00;;;;;8.40;47.96;101460.78;146626;616;46008;-69
2022/03/25 02:01:11;;;;;;;;;16.25;14.00;;;;;8.40;48.17;101453.94;146629;597;45011;-69
2022/03/25 02:04:03;;;;;;;;;17.25;13.75;;;;;8.41;47.28;101453.16;146626;613;45008;-69
2022/03/25 02:06:56;;;;;;;;;29.50;23.00;;;;;8.46;46.37;101458.62;146602;587;46010;-69
2022/03/25 02:09:49;;;;;;;;;26.25;21.50;;;;;8.54;46.44;101460.09;146608;625;46020;-69
2022/03/25 02:12:41;;;;;;;;;40.25;33.25;;;;;8.62;45.91;101458.03;146604;564;47010;-68
2022/03/25 02:15:42;;;;;;;;;32.50;29.75;;;;;8.71;46.05;101459.56;146606;799;45917;-70
2022/03/25 02:18:34;;;;;;;;;21.25;19.00;;;;;8.76;45.51;101458.22;146605;584;46012;-70
2022/03/25 02:21:26;;;;;;;;;33.50;27.25;;;;;8.85;45.64;101459.63;146602;605;47008;-70
2022/03/25 02:24:19;;;;;;;;;46.50;35.75;;;;;8.88;45.41;101457.25;146603;620;46010;-72
2022/03/25 02:27:13;;;;;;;;;47.50;38.25;;;;;8.94;45.35;101463.78;146609;574;46012;-71
2022/03/25 02:30:06;;;;;;;;;21.00;19.00;;;;;8.95;44.72;101456.94;146605;694;46017;-71
2022/03/25 02:33:04;;;;;;;;;21.25;20.50;;;;;8.97;45.72;101456.25;146608;584;46008;-72
2022/03/25 02:35:56;;;;;;;;;15.75;13.25;;;;;8.94;44.91;101452.53;146607;597;45914;-70
2022/03/25 02:38:48;;;;;;;;;13.25;11.75;;;;;8.91;45.97;101461.00;146608;730;46008;-71
2022/03/25 02:41:41;;;;;;;;;19.50;15.75;;;;;8.87;45.73;101456.38;146604;577;47012;-72
2022/03/25 02:44:33;;;;;;;;;16.50;13.50;;;;;8.84;46.63;101469.09;146606;573;46020;-76
2022/03/25 02:47:25;;;;;;;;;16.00;16.00;;;;;8.71;46.43;101462.16;146605;605;46914;-76
2022/03/25 02:50:18;;;;;;;;;14.25;13.00;;;;;8.57;46.46;101468.06;146611;566;45020;-76
2022/03/25 02:53:10;;;;;;;;;21.25;19.25;;;;;8.49;46.89;101458.84;146608;600;46012;-76
2022/03/25 02:56:02;;;;;;;;;16.75;15.00;;;;;8.40;46.76;101472.00;146605;585;46008;-76
2022/03/25 02:58:56;;;;;;;;;19.25;18.75;;;;;8.31;46.94;101472.22;146601;619;47010;-76
2022/03/25 03:01:48;;;;;;;;;18.25;14.25;;;;;8.28;46.99;101468.50;146606;578;47008;-75
2022/03/25 03:04:40;;;;;;;;;14.50;13.00;;;;;8.22;47.30;101479.28;146605;592;46016;-73
2022/03/25 03:07:32;;;;;;;;;18.25;13.50;;;;;8.18;46.90;101481.56;146605;580;46021;-75
2022/03/25 03:10:25;;;;;;;;;17.25;15.75;;;;;8.13;46.90;101475.16;146606;590;46010;-70
2022/03/25 03:13:17;;;;;;;;;20.50;16.50;;;;;8.13;48.05;101482.91;146605;630;46020;-72
2022/03/25 03:16:10;;;;;;;;;20.00;16.75;;;;;8.06;48.47;101473.81;146605;645;46016;-72
2022/03/25 03:19:02;;;;;;;;;19.75;19.50;;;;;8.01;47.79;101473.50;146606;649;46020;-72
2022/03/25 03:21:54;;;;;;;;;16.00;14.00;;;;;7.98;48.18;101474.94;146607;579;45915;-72
2022/03/25 03:24:46;;;;;;;;;15.25;15.00;;;;;7.91;49.79;101472.69;146609;627;45020;-75
2022/03/25 03:27:39;;;;;;;;;15.50;13.00;;;;;7.83;48.39;101473.03;146605;576;46017;-75
2022/03/25 03:30:31;;;;;;;;;21.25;20.00;;;;;7.81;47.82;101461.66;146606;589;46021;-73
2022/03/25 03:33:23;;;;;;;;;20.50;18.50;;;;;7.86;48.05;101464.59;146607;563;46010;-72
2022/03/25 03:36:15;;;;;;;;;17.25;15.00;;;;;7.82;49.07;101458.31;146608;586;46021;-72
2022/03/25 03:39:07;;;;;;;;;18.25;14.75;;;;;7.86;48.48;101460.34;146604;631;46016;-70
2022/03/25 03:41:59;;;;;;;;;20.75;18.50;;;;;7.85;48.56;101457.66;146606;594;45020;-69
2022/03/25 03:44:51;;;;;;;;;18.75;16.00;;;;;7.86;48.34;101459.44;146603;595;46017;-69
2022/03/25 03:47:45;;;;;;;;;23.75;19.50;;;;;7.89;47.63;101463.94;146608;649;46008;-70
2022/03/25 03:50:38;;;;;;;;;20.50;17.75;;;;;7.99;48.57;101458.66;146604;577;46914;-70
2022/03/25 03:53:29;;;;;;;;;17.00;16.25;;;;;8.01;47.68;101460.56;146610;571;46008;-70
2022/03/25 03:56:22;;;;;;;;;19.50;17.00;;;;;8.01;49.02;101464.84;146605;570;46016;-69
2022/03/25 03:59:14;;;;;;;;;21.00;18.50;;;;;7.97;48.60;101471.44;146606;559;46021;-70
2022/03/25 04:02:07;;;;;;;;;18.50;14.75;;;;;7.84;48.88;101464.47;146604;583;46914;-69
2022/03/25 04:05:00;;;;;;;;;20.50;18.00;;;;;7.81;47.00;101479.75;146610;597;46008;-71
2022/03/25 04:07:53;;;;;;;;;27.75;23.50;;;;;7.87;47.74;101475.03;146598;588;47915;-71
2022/03/25 04:10:46;;;;;;;;;22.00;19.00;;;;;7.98;47.89;101467.19;146605;595;46020;-71
2022/03/25 04:13:38;;;;;;;;;19.50;17.50;;;;;8.07;48.04;101480.78;146602;577;46915;-70
2022/03/25 04:16:30;;;;;;;;;16.25;15.75;;;;;8.08;47.81;101470.56;146607;618;47008;-70
2022/03/25 04:19:22;;;;;;;;;20.25;18.50;;;;;8.13;47.21;101489.00;146601;634;46034;-71
2022/03/25 04:22:14;;;;;;;;;18.25;16.25;;;;;8.15;46.53;101489.09;146611;597;46012;-70
2022/03/25 04:25:07;;;;;;;;;24.50;20.00;;;;;8.17;46.70;101491.00;146604;563;46016;-70
2022/03/25 04:28:01;;;;;;;;;17.25;16.25;;;;;8.17;48.20;101505.59;146608;613;45021;-71
2022/03/25 04:30:54;;;;;;;;;20.75;18.75;;;;;8.07;46.86;101507.50;146604;571;46016;-70
2022/03/25 04:33:46;;;;;;;;;21.50;17.75;;;;;8.03;48.26;101509.75;146608;582;46020;-71
2022/03/25 04:36:38;;;;;;;;;19.00;17.25;;;;;7.96;48.23;101507.50;146606;564;46031;-70
2022/03/25 04:39:30;;;;;;;;;19.50;16.00;;;;;7.91;48.45;101519.16;146605;639;46020;-70
2022/03/25 04:42:22;;;;;;;;;20.75;19.50;;;;;7.86;47.88;101511.97;146602;606;46010;-70
2022/03/25 04:45:14;;;;;;;;;29.50;25.75;;;;;7.88;47.76;101517.25;146604;654;46021;-70
2022/03/25 04:48:08;;;;;;;;;19.50;18.50;;;;;7.90;49.54;101513.09;146601;565;46016;-70
2022/03/25 04:51:00;;;;;;;;;24.75;19.25;;;;;7.89;49.93;101513.00;146605;633;46020;-70
2022/03/25 04:53:52;;;;;;;;;25.75;20.00;;;;;7.85;49.56;101528.25;146603;568;46016;-71
2022/03/25 04:56:44;;;;;;;;;41.50;32.25;;;;;7.88;49.40;101525.00;146603;583;47009;-72
2022/03/25 04:59:36;;;;;;;;;42.00;33.25;;;;;7.94;48.69;101517.69;146605;611;46915;-72
2022/03/25 05:02:28;;;;;;;;;27.25;23.00;;;;;8.02;49.30;101524.34;146605;642;46008;-71
2022/03/25 05:05:20;;;;;;;;;22.75;21.50;;;;;8.30;48.70;101526.38;146606;569;46017;-69
2022/03/25 05:08:13;;;;;;;;;23.00;21.25;;;;;8.95;48.00;101514.72;146604;653;46020;-69
2022/03/25 05:11:05;;;;;;;;;32.50;24.00;;;;;9.81;47.01;101523.22;146603;577;46016;-70
2022/03/25 05:13:57;;;;;;;;;21.75;19.75;;;;;10.72;44.51;101526.53;146605;660;46026;-69
2022/03/25 05:16:52;;;;;;;;;22.25;19.50;;;;;11.45;42.57;101520.69;146603;575;46016;-70
2022/03/25 05:19:44;;;;;;;;;26.50;23.50;;;;;12.12;41.16;101522.88;146607;586;46021;-69
2022/03/25 05:22:36;;;;;;;;;36.75;30.00;;;;;12.65;39.61;101514.66;146601;566;46016;-70
2022/03/25 05:25:28;;;;;;;;;35.00;30.50;;;;;13.04;39.25;101525.44;146606;576;46008;-70
2022/03/25 05:28:20;;;;;;;;;34.50;29.75;;;;;13.39;37.53;101520.44;146601;575;46915;-69
2022/03/25 05:31:12;;;;;;;;;25.75;23.25;;;;;13.55;37.05;101523.81;146606;564;46020;-70
2022/03/25 05:34:04;;;;;;;;;26.00;24.50;;;;;13.62;35.92;101512.91;146599;702;46016;-69
2022/03/25 05:36:56;;;;;;;;;24.00;20.50;;;;;13.47;35.27;101510.41;146602;593;46021;-69
2022/03/25 05:39:48;;;;;;;;;22.50;21.00;;;;;13.32;35.28;101509.59;146605;627;46016;-69
2022/03/25 05:42:41;;;;;;;;;22.00;19.00;;;;;13.24;36.08;101509.19;146608;608;46008;-70
2022/03/25 05:45:33;;;;;;;;;22.75;20.50;;;;;13.26;36.72;101520.59;146603;611;47010;-68
2022/03/25 05:48:25;;;;;;;;;25.50;21.75;;;;;13.35;35.17;101521.06;146605;579;46008;-74
2022/03/25 05:51:18;;;;;;;;;22.50;20.75;;;;;13.48;36.23;101526.94;146605;583;46016;-74
2022/03/25 05:54:10;;;;;;;;;22.00;20.00;;;;;13.63;36.13;101530.31;146607;677;47008;-73
2022/03/25 05:57:02;;;;;;;;;26.00;20.75;;;;;13.80;34.96;101532.09;146604;643;46010;-73
2022/03/25 05:59:57;;;;;;;;;22.50;20.75;;;;;13.91;35.29;101539.56;146608;576;46020;-70
2022/03/25 06:02:49;;;;;;;;;22.50;19.75;;;;;14.05;35.38;101546.38;146602;563;46016;-68
2022/03/25 06:05:42;;;;;;;;;23.50;23.00;;;;;14.22;35.23;101550.72;146606;666;47008;-68
2022/03/25 06:08:35;;;;;;;;;24.25;20.75;;;;;14.41;34.75;101549.00;146605;576;46016;-69
2022/03/25 06:11:28;;;;;;;;;19.75;16.50;;;;;14.62;34.38;101549.19;146608;571;46020;-68
2022/03/25 06:14:20;;;;;;;;;24.75;20.75;;;;;14.83;34.54;101552.81;146603;565;46017;-68
2022/03/25 06:17:12;;;;;;;;;24.00;19.00;;;;;15.04;33.62;101554.63;146605;569;46020;-70
2022/03/25 06:20:04;;;;;;;;;25.00;23.00;;;;;15.24;33.54;101554.72;146601;621;47021;-69
2022/03/25 06:22:56;;;;;;;;;15.75;14.25;;;;;15.44;34.64;101566.06;146606;565;46020;-70
2022/03/25 06:25:49;;;;;;;;;24.00;22.00;;;;;15.63;34.31;101559.94;146604;616;46016;-69
2022/03/25 06:28:40;;;;;;;;;21.50;21.25;;;;;15.84;33.19;101566.97;146610;564;46008;-69
2022/03/25 06:31:33;;;;;;;;;24.50;22.00;;;;;16.02;33.18;101565.16;146602;709;46016;-69
2022/03/25 06:34:25;;;;;;;;;24.00;20.50;;;;;16.14;33.32;101564.78;146602;578;46021;-69
2022/03/25 06:37:18;;;;;;;;;25.25;23.50;;;;;16.29;33.95;101569.72;146600;583;46016;-70
2022/03/25 06:40:11;;;;;;;;;29.00;23.50;;;;;16.48;33.08;101564.44;146607;600;47008;-67
2022/03/25 06:43:03;;;;;;;;;23.25;19.75;;;;;16.67;32.57;101570.44;146609;566;46010;-69
2022/03/25 06:45:55;;;;;;;;;25.25;24.00;;;;;16.83;32.62;101571.12;146605;614;46020;-68
2022/03/25 06:48:47;;;;;;;;;25.50;22.00;;;;;17.01;33.11;101575.28;146605;707;46017;-68
2022/03/25 06:51:39;;;;;;;;;32.25;29.50;;;;;17.14;32.83;101572.31;146605;615;46008;-68
2022/03/25 06:54:32;;;;;;;;;28.25;27.50;;;;;17.28;31.37;101568.44;146603;684;47012;-68
2022/03/25 06:57:24;;;;;;;;;30.00;27.25;;;;;17.44;31.57;101572.53;146604;570;46021;-67
2022/03/25 07:00:17;;;;;;;;;24.75;23.00;;;;;17.57;30.53;101575.59;146603;574;46016;-68
2022/03/25 07:03:10;;;;;;;;;23.25;21.50;;;;;17.64;31.32;101578.53;146606;564;45021;-68
2022/03/25 07:06:03;;;;;;;;;26.00;21.50;;;;;17.79;31.84;101575.59;146601;563;46016;-68
2022/03/25 07:08:59;;;;;;;;;21.25;18.75;;;;;17.95;31.84;101580.53;146606;679;46020;-69
2022/03/25 07:11:52;;;;;;;;;26.25;23.50;;;;;18.05;30.61;101570.34;146602;664;47010;-69
2022/03/25 07:14:44;;;;;;;;;26.50;21.00;;;;;18.12;31.29;101578.47;146603;602;46020;-69
2022/03/25 07:17:37;;;;;;;;;23.00;20.00;;;;;18.26;30.41;101585.94;146601;599;47010;-68
2022/03/25 07:20:29;;;;;;;;;26.25;23.25;;;;;18.35;31.16;101579.25;146608;630;46008;-70
2022/03/25 07:23:21;;;;;;;;;25.75;22.00;;;;;18.50;30.90;101584.09;146605;628;46010;-70
2022/03/25 07:26:14;;;;;;;;;22.75;22.75;;;;;18.61;30.41;101582.72;146607;642;46008;-70
2022/03/25 07:29:06;;;;;;;;;25.75;22.50;;;;;18.66;29.58;101578.53;146599;569;46012;-68
2022/03/25 07:31:58;;;;;;;;;22.25;20.00;;;;;18.67;29.37;101575.03;146604;672;46020;-72
2022/03/25 07:34:51;;;;;;;;;21.00;20.00;;;;;18.69;29.96;101582.94;146605;569;46010;-72
2022/03/25 07:37:44;;;;;;;;;26.50;24.00;;;;;18.78;29.34;101585.91;146607;563;46020;-73
2022/03/25 07:40:36;;;;;;;;;20.50;19.50;;;;;18.89;28.59;101592.41;146605;611;46010;-73
2022/03/25 07:43:28;;;;;;;;;19.00;17.00;;;;;18.95;30.30;101582.94;146606;613;46020;-72
2022/03/25 07:46:23;;;;;;;;;23.50;19.75;;;;;19.01;28.86;101593.63;146603;675;46012;-73
2022/03/25 07:49:15;;;;;;;;;23.00;20.75;;;;;19.06;29.20;101586.75;146605;613;46021;-74
2022/03/25 07:52:07;;;;;;;;;24.00;21.00;;;;;19.14;28.93;101587.91;146602;611;46016;-75
2022/03/25 07:55:00;;;;;;;;;27.00;24.50;;;;;19.22;29.30;101594.28;146607;607;46020;-76
2022/03/25 07:57:53;;;;;;;;;28.75;24.00;;;;;19.32;29.03;101593.72;146599;571;47012;-76
2022/03/25 08:00:45;;;;;;;;;19.75;19.75;;;;;19.44;28.73;101597.50;146602;563;46020;-76
2022/03/25 08:03:37;;;;;;;;;23.75;20.75;;;;;19.59;28.67;101592.69;146603;635;47012;-77
2022/03/25 08:06:29;;;;;;;;;21.75;20.25;;;;;19.71;28.99;101581.66;146633;592;45008;-76
2022/03/25 08:09:22;;;;;;;;;25.25;22.75;;;;;19.87;29.10;101588.22;146622;610;45914;-75
2022/03/25 08:12:14;;;;;;;;;27.00;23.75;;;;;20.01;28.77;101577.22;146631;625;45008;-77
2022/03/25 08:15:09;;;;;;;;;23.25;20.50;;;;;20.14;27.78;101578.44;146625;571;45911;-76
2022/03/25 08:18:13;;;;;;;;;25.00;22.00;;;;;20.20;29.16;101580.34;146626;570;45012;-71
2022/03/25 08:21:06;;;;;;;;;26.00;22.25;;;;;20.28;27.87;101584.06;146623;566;45016;-72
2022/03/25 08:30:20;;;;;;;;;24.50;19.50;;;;;20.77;28.31;101578.25;146629;608;45008;-71
2022/03/25 08:33:12;;;;;;;;;24.00;22.25;;;;;20.89;27.23;101569.72;146626;621;46010;-71
2022/03/25 08:36:04;;;;;;;;;29.25;27.00;;;;;21.01;28.05;101569.13;146626;614;45020;-71
2022/03/25 08:38:57;;;;;;;;;23.75;19.00;;;;;21.13;27.82;101574.66;146627;628;44041;-71
2022/03/25 08:41:49;;;;;;;;;22.00;21.25;;;;;21.15;27.77;101575.59;146630;614;45008;-72
2022/03/25 08:44:41;;;;;;;;;30.25;23.75;;;;;21.27;28.12;101574.06;146625;573;46016;-72
2022/03/25 08:47:33;;;;;;;;;23.00;21.25;;;;;21.36;28.26;101574.28;146630;664;44917;-74
2022/03/25 08:50:26;;;;;;;;;23.25;21.50;;;;;21.39;28.02;101563.78;146627;576;44914;-73
2022/03/25 08:53:18;;;;;;;;;25.00;22.25;;;;;21.50;27.23;101557.00;146629;586;45916;-72
2022/03/25 08:56:12;;;;;;;;;22.00;19.00;;;;;21.59;28.33;101559.81;146627;691;45016;-74
2022/03/25 08:59:05;;;;;;;;;24.00;22.50;;;;;21.68;26.81;101560.00;146626;569;45020;-73
2022/03/25 09:02:00;;;;;;;;;18.50;17.00;;;;;21.71;26.48;101560.88;146626;570;45013;-73
2022/03/25 09:04:52;;;;;;;;;21.25;18.50;;;;;21.79;27.15;101556.66;146618;587;47020;-72
2022/03/25 09:07:44;;;;;;;;;22.50;20.25;;;;;21.85;25.45;101551.50;146605;773;46010;-73
2022/03/25 09:10:37;;;;;;;;;23.25;21.25;;;;;21.90;26.80;101556.00;146607;564;46021;-72
2022/03/25 09:13:29;;;;;;;;;20.25;18.25;;;;;21.96;25.60;101556.94;146603;613;46010;-72
2022/03/25 09:16:21;;;;;;;;;21.25;19.25;;;;;22.03;26.32;101557.09;146608;592;46008;-73
2022/03/25 09:19:13;;;;;;;;;20.25;17.00;;;;;22.10;25.92;101553.69;146604;602;46010;-72
2022/03/25 09:22:05;;;;;;;;;24.50;22.00;;;;;22.19;26.49;101538.91;146606;600;46020;-72
2022/03/25 09:24:58;;;;;;;;;17.25;16.75;;;;;22.31;26.61;101542.63;146604;578;46010;-72
2022/03/25 09:27:49;;;;;;;;;24.75;22.75;;;;;22.45;27.86;101544.59;146605;599;46020;-72
2022/03/25 09:30:42;;;;;;;;;26.75;25.00;;;;;22.63;27.37;101539.59;146603;594;46028;-73
2022/03/25 09:33:33;;;;;;;;;27.25;22.50;;;;;22.86;26.89;101537.25;146604;584;47919;-73
2022/03/25 09:36:26;;;;;;;;;22.25;20.50;;;;;23.01;26.44;101536.62;146604;643;47012;-73
2022/03/25 09:39:18;;;;;;;;;21.00;19.25;;;;;22.28;26.10;101384.06;146602;600;47009;-73
2022/03/25 09:42:11;;;;;;;;;18.75;17.50;;;;;23.24;26.20;101524.59;146603;636;46010;-72
2022/03/25 09:45:05;;;;;;;;;19.25;19.00;;;;;23.33;27.12;101518.50;146608;613;46008;-73
2022/03/25 09:47:58;;;;;;;;;21.75;19.75;;;;;23.44;26.40;101524.81;146604;590;47010;-73
2022/03/25 09:50:50;;;;;;;;;20.50;19.75;;;;;23.57;26.72;101522.28;146602;697;46918;-72
2022/03/25 09:53:43;;;;;;;;;29.25;25.50;;;;;23.68;26.87;101520.66;146603;579;46011;-73
2022/03/25 09:56:35;;;;;;;;;23.25;20.25;;;;;23.77;26.55;101514.56;146606;607;46008;-73
2022/03/25 09:59:27;;;;;;;;;31.25;27.50;;;;;23.91;26.66;101512.94;146604;599;46912;-73
2022/03/25 10:02:20;;;;;;;;;23.25;21.25;;;;;24.04;26.39;101508.63;146604;621;46020;-73
2022/03/25 10:05:23;;;;;;;;;25.75;22.50;;;;;24.12;28.35;101499.88;146602;611;46016;-73
2022/03/25 10:08:15;;;;;;;;;25.75;23.75;;;;;24.20;27.11;101503.50;146608;598;46008;-74
2022/03/25 10:11:35;;;;;;;;;26.00;21.25;;;;;24.31;28.97;101495.59;146604;613;47010;-73
2022/03/25 10:14:29;;;;;;;;;24.75;20.75;;;;;24.47;25.14;101501.06;146606;577;47008;-73
2022/03/25 10:17:21;;;;;;;;;20.00;19.00;;;;;24.45;25.50;101490.41;146600;645;47010;-74
2022/03/25 10:20:16;;;;;;;;;22.75;20.75;;;;;23.62;26.91;101340.56;146607;596;47008;-74
2022/03/25 10:23:12;;;;;;;;;22.00;19.00;;;;;24.56;26.07;101482.56;146602;582;47010;-73
2022/03/25 10:26:03;;;;;;;;;24.50;21.25;;;;;24.71;25.71;101487.06;146604;606;47008;-73
2022/03/25 10:28:57;;;;;;;;;20.00;19.25;;;;;24.83;26.36;101477.37;146602;586;46016;-74
2022/03/25 10:32:12;;;;;;;;;22.00;18.50;;;;;24.92;27.45;101475.62;146605;581;46020;-74
2022/03/25 10:35:13;;;;;;;;;23.50;20.50;;;;;24.99;27.50;101472.16;146604;632;46010;-75
2022/03/25 10:38:05;;;;;;;;;21.50;19.75;;;;;25.11;26.00;101469.53;146605;570;46021;-74
2022/03/25 10:41:00;;;;;;;;;21.25;18.50;;;;;25.23;25.45;101464.28;146603;586;46019;-74
2022/03/25 10:44:05;;;;;;;;;23.75;21.00;;;;;25.32;26.67;101455.44;146608;646;46020;-74
2022/03/25 10:46:57;;;;;;;;;19.50;18.25;;;;;25.44;23.97;101454.59;146605;708;46016;-75
2022/03/25 10:49:52;;;;;;;;;23.00;19.50;;;;;25.51;25.49;101453.72;146602;583;47008;-73
2022/03/25 10:52:44;;;;;;;;;18.25;17.25;;;;;25.60;24.05;101445.75;146603;698;47010;-74
2022/03/25 10:55:36;;;;;;;;;21.00;19.25;;;;;25.61;24.49;101450.22;146606;582;46008;-74
2022/03/25 10:58:28;;;;;;;;;23.25;20.00;;;;;25.57;24.88;101438.66;146602;600;46016;-75
2022/03/25 11:01:20;;;;;;;;;23.00;19.00;;;;;25.60;24.94;101442.22;146609;628;46008;-75
2022/03/25 11:04:12;;;;;;;;;26.75;24.00;;;;;25.65;23.13;101438.69;146605;642;46030;-75
2022/03/25 11:07:04;;;;;;;;;17.75;15.75;;;;;25.67;22.94;101431.62;146607;577;46008;-75
2022/03/25 11:09:57;;;;;;;;;18.00;16.75;;;;;25.70;24.29;101426.31;146601;579;46016;-76
2022/03/25 11:12:54;;;;;;;;;22.50;19.50;;;;;25.80;25.03;101417.44;146606;705;46020;-75
2022/03/25 11:15:49;;;;;;;;;26.25;22.50;;;;;25.89;23.07;101413.94;146604;579;46017;-75
2022/03/25 11:18:45;;;;;;;;;21.25;18.75;;;;;25.84;20.96;101412.16;146606;654;46029;-75
2022/03/25 11:21:42;;;;;;;;;22.25;19.50;;;;;25.67;21.38;101404.16;146601;600;47010;-75
2022/03/25 11:24:40;;;;;;;;;28.00;25.75;;;;;25.52;23.39;101397.97;146606;582;46009;-74
2022/03/25 11:27:37;;;;;;;;;24.25;21.25;;;;;25.49;22.85;101400.63;146606;634;46016;-77
2022/03/25 11:30:35;;;;;;;;;23.00;19.50;;;;;25.59;25.12;101396.19;146607;589;47008;-75
2022/03/25 11:33:27;;;;;;;;;36.25;31.25;;;;;25.78;24.12;101383.78;146600;601;46016;-74
2022/03/25 11:36:24;;;;;;;;;17.25;17.25;;;;;25.90;22.35;101383.81;146607;563;46020;-75
2022/03/25 11:39:27;;;;;;;;;24.50;23.75;;;;;25.87;25.25;101386.47;146607;619;46016;-75
2022/03/25 11:42:42;;;;;;;;;29.25;25.75;;;;;25.83;23.82;101381.19;146606;751;46008;-75
2022/03/25 11:45:36;;;;;;;;;28.00;25.00;;;;;25.85;22.01;101376.72;146603;617;46016;-74
2022/03/25 11:48:43;;;;;;;;;19.75;19.50;;;;;25.84;24.38;101373.19;146609;569;45021;-74
2022/03/25 11:51:37;;;;;;;;;22.25;21.25;;;;;25.87;23.38;101369.66;146598;654;47010;-74
2022/03/25 11:54:44;;;;;;;;;15.50;15.00;;;;;25.99;23.86;101366.97;146607;580;46012;-74
2022/03/25 11:57:38;;;;;;;;;20.25;19.00;;;;;26.05;22.73;101359.00;146603;565;46016;-74
2022/03/25 12:00:32;;;;;;;;;28.25;22.25;;;;;26.17;23.35;101355.41;146609;610;45020;-74
2022/03/25 12:03:24;;;;;;;;;21.25;19.25;;;;;26.27;23.63;101341.19;146604;588;47010;-74
2022/03/25 12:06:16;;;;;;;;;19.75;18.50;;;;;26.38;22.04;101334.03;146605;619;46020;-72
2022/03/25 12:09:15;;;;;;;;;11.50;11.50;;;;;26.45;22.32;101330.50;146604;583;46016;-74
2022/03/25 12:12:08;;;;;;;;;16.75;15.75;;;;;26.57;22.60;101323.34;146608;574;46008;-74
2022/03/25 12:15:13;;;;;;;;;15.75;15.25;;;;;26.63;24.18;101321.53;146598;635;47912;-74
2022/03/25 12:18:41;;;;;;;;;19.50;18.00;;;;;26.60;23.28;101321.56;146609;583;47008;-74
2022/03/25 12:21:53;;;;;;;;;16.50;15.50;;;;;25.57;21.13;101165.16;146603;590;46912;-74
2022/03/25 12:24:46;;;;;;;;;17.00;16.00;;;;;26.43;22.10;101318.97;146604;656;47008;-74
2022/03/25 12:27:38;;;;;;;;;18.25;16.00;;;;;26.33;23.53;101317.25;146600;649;46912;-74
2022/03/25 12:30:39;;;;;;;;;16.25;14.50;;;;;26.05;22.50;101312.94;146603;617;47020;-74
2022/03/25 12:33:31;;;;;;;;;17.50;16.75;;;;;25.71;23.94;101313.84;146606;600;46010;-74
2022/03/25 12:36:24;;;;;;;;;10.50;10.50;;;;;25.42;24.61;101311.25;146603;626;46918;-74
2022/03/25 12:39:17;;;;;;;;;26.25;21.50;;;;;25.34;25.47;101310.34;146602;591;47010;-74
2022/03/25 12:42:16;;;;;;;;;18.50;17.50;;;;;25.22;25.27;101308.56;146608;636;46008;-74
2022/03/25 12:45:09;;;;;;;;;22.25;20.50;;;;;25.12;25.00;101304.13;146606;691;46010;-74
2022/03/25 12:48:10;;;;;;;;;16.25;15.00;;;;;24.93;25.62;101310.31;146604;598;47008;-74
2022/03/25 12:51:08;;;;;;;;;15.00;15.00;;;;;24.74;25.86;101304.97;146604;608;46010;-73
2022/03/25 12:54:02;;;;;;;;;18.75;17.50;;;;;24.61;23.79;101311.09;146602;622;46021;-74
2022/03/25 12:57:02;;;;;;;;;17.75;15.50;;;;;24.54;24.37;101293.41;146605;604;46016;-74
2022/03/25 13:00:01;;;;;;;;;23.25;17.25;;;;;24.57;24.86;101290.75;146606;583;46008;-73
2022/03/25 13:02:56;;;;;;;;;16.25;16.00;;;;;24.59;24.05;101284.59;146605;580;46912;-73
2022/03/25 13:05:49;;;;;;;;;19.25;16.25;;;;;24.61;24.18;101279.28;146606;662;46020;-73
2022/03/25 13:08:42;;;;;;;;;14.75;14.75;;;;;24.60;24.18;101283.69;146603;585;46017;-74
2022/03/25 13:11:35;;;;;;;;;16.00;14.00;;;;;24.42;25.32;101273.03;146606;580;47008;-74
2022/03/25 13:14:27;;;;;;;;;19.25;16.75;;;;;24.29;24.21;101281.81;146602;613;46913;-74
2022/03/25 13:17:47;;;;;;;;;14.75;14.75;;;;;24.27;26.06;101271.22;146607;636;46020;-73